sensor_id;sensor_type;location;lat;lon;timestamp;pressure;altitude;pressure_sealevel;temperature;humidity
23363;BME280;11853;48.080;11.960;2024-01-07T00:00:06;93894.53;;;3.61;100.00
23363;BME280;11853;48.080;11.960;2024-01-07T00:02:32;93891.75;;;3.63;100.00
23363;BME280;11853;48.080;11.960;2024-01-07T00:04:57;93904.75;;;3.65;100.00
23363;BME280;11853;48.080;11.960;2024-01-07T00:07:23;93895.06;;;3.65;100.00
23363;BME280;11853;48.080;11.960;2024-01-07T00:09:49;93895.06;;;3.65;100.00
23363;BME280;11853;48.080;11.960;2024-01-07T00:12:15;93896.47;;;3.69;100.00
23363;BME280;11853;48.080;11.960;2024-01-07T00:14:40;93897.31;;;3.70;100.00
23363;BME280;11853;48.080;11.960;2024-01-07T00:17:06;93895.63;;;3.69;100.00
23363;BME280;11853;48.080;11.960;2024-01-07T00:19:32;93889.84;;;3.65;100.00
23363;BME280;11853;48.080;11.960;2024-01-07T00:22:00;93887.34;;;3.64;100.00
23363;BME280;11853;48.080;11.960;2024-01-07T00:24:26;93896.06;;;3.64;100.00
23363;BME280;11853;48.080;11.960;2024-01-07T00:26:54;93898.53;;;3.66;100.00
23363;BME280;11853;48.080;11.960;2024-01-07T00:29:20;93892.84;;;3.60;100.00
23363;BME280;11853;48.080;11.960;2024-01-07T00:31:46;93889.84;;;3.65;100.00
23363;BME280;11853;48.080;11.960;2024-01-07T00:34:11;93895.06;;;3.65;100.00
23363;BME280;11853;48.080;11.960;2024-01-07T00:36:37;93887.09;;;3.67;100.00
23363;BME280;11853;48.080;11.960;2024-01-07T00:39:02;93883.22;;;3.61;100.00
23363;BME280;11853;48.080;11.960;2024-01-07T00:41:28;93892.84;;;3.60;100.00
23363;BME280;11853;48.080;11.960;2024-01-07T00:43:55;93888.03;;;3.56;100.00
23363;BME280;11853;48.080;11.960;2024-01-07T00:46:21;93891.75;;;3.53;100.00
23363;BME280;11853;48.080;11.960;2024-01-07T00:48:47;93891.63;;;3.55;100.00
23363;BME280;11853;48.080;11.960;2024-01-07T00:51:12;93877.25;;;3.49;100.00
23363;BME280;11853;48.080;11.960;2024-01-07T00:53:38;93887.31;;;3.54;100.00
23363;BME280;11853;48.080;11.960;2024-01-07T00:56:04;93884.97;;;3.51;100.00
23363;BME280;11853;48.080;11.960;2024-01-07T00:58:30;93886.75;;;3.50;100.00
23363;BME280;11853;48.080;11.960;2024-01-07T01:00:55;93885.94;;;3.50;100.00
23363;BME280;11853;48.080;11.960;2024-01-07T01:03:21;93890.22;;;3.51;100.00
23363;BME280;11853;48.080;11.960;2024-01-07T01:05:47;93889.81;;;3.55;100.00
23363;BME280;11853;48.080;11.960;2024-01-07T01:08:12;93892.84;;;3.51;100.00
23363;BME280;11853;48.080;11.960;2024-01-07T01:10:38;93884.84;;;3.52;100.00
23363;BME280;11853;48.080;11.960;2024-01-07T01:13:04;93892.84;;;3.51;100.00
23363;BME280;11853;48.080;11.960;2024-01-07T01:15:29;93896.16;;;3.53;100.00
23363;BME280;11853;48.080;11.960;2024-01-07T01:17:55;93897.97;;;3.52;100.00
23363;BME280;11853;48.080;11.960;2024-01-07T01:20:20;93901.84;;;3.58;100.00
23363;BME280;11853;48.080;11.960;2024-01-07T01:22:46;93897.97;;;3.62;100.00
23363;BME280;11853;48.080;11.960;2024-01-07T01:25:12;93906.09;;;3.59;100.00
23363;BME280;11853;48.080;11.960;2024-01-07T01:27:37;93899.88;;;3.60;100.00
23363;BME280;11853;48.080;11.960;2024-01-07T01:30:03;93902.78;;;3.57;100.00
23363;BME280;11853;48.080;11.960;2024-01-07T01:32:29;93898.25;;;3.59;100.00
23363;BME280;11853;48.080;11.960;2024-01-07T01:34:55;93906.09;;;3.59;100.00
23363;BME280;11853;48.080;11.960;2024-01-07T01:37:20;93897.69;;;3.55;100.00
23363;BME280;11853;48.080;11.960;2024-01-07T01:39:46;93903.34;;;3.60;100.00
23363;BME280;11853;48.080;11.960;2024-01-07T01:42:13;93893.53;;;3.63;100.00
23363;BME280;11853;48.080;11.960;2024-01-07T01:44:38;93895.91;;;3.66;100.00
23363;BME280;11853;48.080;11.960;2024-01-07T01:47:06;93897.69;;;3.65;100.00
23363;BME280;11853;48.080;11.960;2024-01-07T01:49:32;93897.16;;;3.61;100.00
23363;BME280;11853;48.080;11.960;2024-01-07T01:51:58;93896.31;;;3.61;100.00
23363;BME280;11853;48.080;11.960;2024-01-07T01:54:24;93896.31;;;3.61;100.00
23363;BME280;11853;48.080;11.960;2024-01-07T01:56:50;93892.03;;;3.60;100.00
23363;BME280;11853;48.080;11.960;2024-01-07T01:59:17;93890.22;;;3.51;100.00
23363;BME280;11853;48.080;11.960;2024-01-07T02:01:43;93888.28;;;3.53;100.00
23363;BME280;11853;48.080;11.960;2024-01-07T02:04:09;93892.84;;;3.60;100.00
23363;BME280;11853;48.080;11.960;2024-01-07T02:06:35;93897.53;;;3.57;100.00
23363;BME280;11853;48.080;11.960;2024-01-07T02:09:01;93895.63;;;3.59;100.00
23363;BME280;11853;48.080;11.960;2024-01-07T02:11:27;93893.97;;;3.58;100.00
23363;BME280;11853;48.080;11.960;2024-01-07T02:13:53;93900.59;;;3.62;100.00
23363;BME280;11853;48.080;11.960;2024-01-07T02:16:18;93892.56;;;3.54;100.00
23363;BME280;11853;48.080;11.960;2024-01-07T02:18:45;93893.97;;;3.58;100.00
23363;BME280;11853;48.080;11.960;2024-01-07T02:21:13;93900.88;;;3.59;100.00
23363;BME280;11853;48.080;11.960;2024-01-07T02:23:39;93900.88;;;3.59;100.00
23363;BME280;11853;48.080;11.960;2024-01-07T02:26:05;93895.06;;;3.55;100.00
23363;BME280;11853;48.080;11.960;2024-01-07T02:28:32;93901.41;;;3.53;100.00
23363;BME280;11853;48.080;11.960;2024-01-07T02:30:58;93892.00;;;3.50;100.00
23363;BME280;11853;48.080;11.960;2024-01-07T02:33:24;93892.84;;;3.51;100.00
23363;BME280;11853;48.080;11.960;2024-01-07T02:35:50;93897.81;;;3.54;100.00
23363;BME280;11853;48.080;11.960;2024-01-07T02:38:16;93895.03;;;3.46;100.00
23363;BME280;11853;48.080;11.960;2024-01-07T02:40:41;93893.53;;;3.53;100.00
23363;BME280;11853;48.080;11.960;2024-01-07T02:43:07;93899.50;;;3.55;100.00
23363;BME280;11853;48.080;11.960;2024-01-07T02:45:33;93894.25;;;3.55;100.00
23363;BME280;11853;48.080;11.960;2024-01-07T02:47:59;93893.25;;;3.56;100.00
23363;BME280;11853;48.080;11.960;2024-01-07T02:50:24;93890.66;;;3.56;100.00
23363;BME280;11853;48.080;11.960;2024-01-07T02:52:50;93892.44;;;3.55;100.00
23363;BME280;11853;48.080;11.960;2024-01-07T02:55:15;93895.34;;;3.62;100.00
23363;BME280;11853;48.080;11.960;2024-01-07T02:57:41;93892.19;;;3.68;100.00
23363;BME280;11853;48.080;11.960;2024-01-07T03:00:07;93893.16;;;3.67;100.00
23363;BME280;11853;48.080;11.960;2024-01-07T03:02:33;93891.25;;;3.69;100.00
23363;BME280;11853;48.080;11.960;2024-01-07T03:04:59;93895.63;;;3.59;100.00
23363;BME280;11853;48.080;11.960;2024-01-07T03:07:25;93895.88;;;3.56;100.00
23363;BME280;11853;48.080;11.960;2024-01-07T03:09:50;93884.56;;;3.55;100.00
23363;BME280;11853;48.080;11.960;2024-01-07T03:12:16;93889.28;;;3.61;100.00
23363;BME280;11853;48.080;11.960;2024-01-07T03:14:42;93882.91;;;3.54;100.00
23363;BME280;11853;48.080;11.960;2024-01-07T03:17:09;93891.34;;;3.58;100.00
23363;BME280;11853;48.080;11.960;2024-01-07T03:19:35;93895.34;;;3.62;100.00
23363;BME280;11853;48.080;11.960;2024-01-07T03:22:00;93903.34;;;3.60;100.00
23363;BME280;11853;48.080;11.960;2024-01-07T03:24:26;93902.81;;;3.67;100.00
23363;BME280;11853;48.080;11.960;2024-01-07T03:26:52;93901.97;;;3.66;100.00
23363;BME280;11853;48.080;11.960;2024-01-07T03:29:17;93898.94;;;3.71;100.00
23363;BME280;11853;48.080;11.960;2024-01-07T03:31:43;93902.56;;;3.70;100.00
23363;BME280;11853;48.080;11.960;2024-01-07T03:34:09;93898.53;;;3.66;100.00
23363;BME280;11853;48.080;11.960;2024-01-07T03:36:34;93900.31;;;3.65;100.00
23363;BME280;11853;48.080;11.960;2024-01-07T03:39:00;93903.91;;;3.64;100.00
23363;BME280;11853;48.080;11.960;2024-01-07T03:41:26;93896.88;;;3.74;100.00
23363;BME280;11853;48.080;11.960;2024-01-07T03:43:51;93897.59;;;3.76;100.00
23363;BME280;11853;48.080;11.960;2024-01-07T03:46:18;93900.47;;;3.73;100.00
23363;BME280;11853;48.080;11.960;2024-01-07T03:48:44;93905.03;;;3.71;100.00
23363;BME280;11853;48.080;11.960;2024-01-07T03:51:10;93902.56;;;3.70;100.00
23363;BME280;11853;48.080;11.960;2024-01-07T03:53:36;93906.00;;;3.70;100.00
23363;BME280;11853;48.080;11.960;2024-01-07T03:56:02;93904.06;;;3.72;100.00
23363;BME280;11853;48.080;11.960;2024-01-07T03:58:27;93908.34;;;3.73;100.00
23363;BME280;11853;48.080;11.960;2024-01-07T04:00:53;93904.75;;;3.74;100.00
23363;BME280;11853;48.080;11.960;2024-01-07T04:03:18;93908.34;;;3.73;100.00
23363;BME280;11853;48.080;11.960;2024-01-07T04:05:44;93908.91;;;3.77;100.00
23363;BME280;11853;48.080;11.960;2024-01-07T04:08:12;93908.34;;;3.73;100.00
23363;BME280;11853;48.080;11.960;2024-01-07T04:10:41;93913.88;;;3.70;100.00
23363;BME280;11853;48.080;11.960;2024-01-07T04:13:06;93915.25;;;3.74;100.00
23363;BME280;11853;48.080;11.960;2024-01-07T04:15:32;93918.84;;;3.73;100.00
23363;BME280;11853;48.080;11.960;2024-01-07T04:18:01;93915.94;;;3.76;100.00
23363;BME280;11853;48.080;11.960;2024-01-07T04:20:27;93917.75;;;3.76;100.00
23363;BME280;11853;48.080;11.960;2024-01-07T04:23:21;93919.28;;;3.78;100.00
23363;BME280;11853;48.080;11.960;2024-01-07T04:25:46;93919.66;;;3.74;100.00
23363;BME280;11853;48.080;11.960;2024-01-07T04:28:12;93916.91;;;3.75;100.00
23363;BME280;11853;48.080;11.960;2024-01-07T04:30:37;93920.91;;;3.79;100.00
23363;BME280;11853;48.080;11.960;2024-01-07T04:33:03;93931.13;;;3.82;100.00
23363;BME280;11853;48.080;11.960;2024-01-07T04:35:29;93927.41;;;3.85;100.00
23363;BME280;11853;48.080;11.960;2024-01-07T04:37:54;93931.41;;;3.79;100.00
23363;BME280;11853;48.080;11.960;2024-01-07T04:40:20;93931.13;;;3.73;100.00
23363;BME280;11853;48.080;11.960;2024-01-07T04:42:46;93941.19;;;3.77;100.00
23363;BME280;11853;48.080;11.960;2024-01-07T04:45:11;93935.94;;;3.77;100.00
23363;BME280;11853;48.080;11.960;2024-01-07T04:47:37;93936.94;;;3.76;100.00
23363;BME280;11853;48.080;11.960;2024-01-07T04:50:03;93948.94;;;3.79;100.00
23363;BME280;11853;48.080;11.960;2024-01-07T04:52:29;93939.28;;;3.79;100.00
23363;BME280;11853;48.080;11.960;2024-01-07T04:54:55;93940.81;;;3.82;100.00
23363;BME280;11853;48.080;11.960;2024-01-07T04:57:22;93943.69;;;3.79;100.00
23363;BME280;11853;48.080;11.960;2024-01-07T04:59:49;93945.50;;;3.78;100.00
23363;BME280;11853;48.080;11.960;2024-01-07T05:02:15;93950.75;;;3.78;100.00
23363;BME280;11853;48.080;11.960;2024-01-07T05:04:41;93947.41;;;3.76;100.00
23363;BME280;11853;48.080;11.960;2024-01-07T05:07:07;93951.28;;;3.72;100.00
23363;BME280;11853;48.080;11.960;2024-01-07T05:09:33;93952.09;;;3.73;100.00
23363;BME280;11853;48.080;11.960;2024-01-07T05:11:59;93949.78;;;3.79;100.00
23363;BME280;11853;48.080;11.960;2024-01-07T05:14:25;93948.69;;;3.82;100.00
23363;BME280;11853;48.080;11.960;2024-01-07T05:16:51;93953.09;;;3.81;100.00
23363;BME280;11853;48.080;11.960;2024-01-07T05:19:16;93948.78;;;3.80;100.00
23363;BME280;11853;48.080;11.960;2024-01-07T05:21:42;93952.41;;;3.79;100.00
23363;BME280;11853;48.080;11.960;2024-01-07T05:24:07;93961.25;;;3.78;100.00
23363;BME280;11853;48.080;11.960;2024-01-07T05:26:43;93955.16;;;3.78;100.00
23363;BME280;11853;48.080;11.960;2024-01-07T05:29:09;93959.81;;;3.74;100.00
23363;BME280;11853;48.080;11.960;2024-01-07T05:31:34;93959.16;;;3.72;100.00
23363;BME280;11853;48.080;11.960;2024-01-07T05:34:00;93960.63;;;3.65;100.00
23363;BME280;11853;48.080;11.960;2024-01-07T05:36:26;93971.81;;;3.67;100.00
23363;BME280;11853;48.080;11.960;2024-01-07T05:38:51;93965.88;;;3.65;100.00
23363;BME280;11853;48.080;11.960;2024-01-07T05:41:17;93968.22;;;3.68;100.00
23363;BME280;11853;48.080;11.960;2024-01-07T05:43:43;93975.66;;;3.63;100.00
23363;BME280;11853;48.080;11.960;2024-01-07T05:46:08;93978.44;;;3.61;100.00
23363;BME280;11853;48.080;11.960;2024-01-07T05:48:46;93975.66;;;3.63;100.00
23363;BME280;11853;48.080;11.960;2024-01-07T05:51:13;93979.00;;;3.65;100.00
23363;BME280;11853;48.080;11.960;2024-01-07T05:53:43;93971.81;;;3.67;100.00
23363;BME280;11853;48.080;11.960;2024-01-07T05:56:08;93972.53;;;3.69;100.00
23363;BME280;11853;48.080;11.960;2024-01-07T05:58:34;93981.34;;;3.68;100.00
23363;BME280;11853;48.080;11.960;2024-01-07T06:01:00;93978.88;;;3.67;100.00
23363;BME280;11853;48.080;11.960;2024-01-07T06:03:26;93983.16;;;3.68;100.00
23363;BME280;11853;48.080;11.960;2024-01-07T06:05:52;93981.22;;;3.70;100.00
23363;BME280;11853;48.080;11.960;2024-01-07T06:08:17;93986.47;;;3.70;100.00
23363;BME280;11853;48.080;11.960;2024-01-07T06:10:43;93979.44;;;3.70;100.00
23363;BME280;11853;48.080;11.960;2024-01-07T06:13:09;93975.16;;;3.69;100.00
23363;BME280;11853;48.080;11.960;2024-01-07T06:15:35;93984.78;;;3.59;100.00
23363;BME280;11853;48.080;11.960;2024-01-07T06:18:01;93978.16;;;3.55;100.00
23363;BME280;11853;48.080;11.960;2024-01-07T06:20:26;93985.31;;;3.63;100.00
23363;BME280;11853;48.080;11.960;2024-01-07T06:22:53;93986.41;;;3.60;100.00
23363;BME280;11853;48.080;11.960;2024-01-07T06:25:19;93995.00;;;3.62;100.00
23363;BME280;11853;48.080;11.960;2024-01-07T06:27:45;93994.16;;;3.61;100.00
23363;BME280;11853;48.080;11.960;2024-01-07T06:30:11;93997.50;;;3.64;100.00
23363;BME280;11853;48.080;11.960;2024-01-07T06:32:37;93998.75;;;3.69;100.00
23363;BME280;11853;48.080;11.960;2024-01-07T06:35:03;93998.75;;;3.69;100.00
23363;BME280;11853;48.080;11.960;2024-01-07T06:37:30;93999.84;;;3.67;100.00
23363;BME280;11853;48.080;11.960;2024-01-07T06:39:56;94008.53;;;3.67;100.00
23363;BME280;11853;48.080;11.960;2024-01-07T06:42:23;94006.47;;;3.71;100.00
23363;BME280;11853;48.080;11.960;2024-01-07T06:44:49;94005.78;;;3.69;100.00
23363;BME280;11853;48.080;11.960;2024-01-07T06:47:15;94007.72;;;3.67;100.00
23363;BME280;11853;48.080;11.960;2024-01-07T06:49:41;94012.25;;;3.65;100.00
23363;BME280;11853;48.080;11.960;2024-01-07T06:52:06;94010.47;;;3.65;100.00
23363;BME280;11853;48.080;11.960;2024-01-07T06:54:32;94022.59;;;3.66;100.00
23363;BME280;11853;48.080;11.960;2024-01-07T06:56:58;94017.13;;;3.69;100.00
23363;BME280;11853;48.080;11.960;2024-01-07T06:59:26;94028.16;;;3.73;100.00
23363;BME280;11853;48.080;11.960;2024-01-07T07:01:52;94028.56;;;3.68;100.00
23363;BME280;11853;48.080;11.960;2024-01-07T07:04:20;94032.00;;;3.69;100.00
23363;BME280;11853;48.080;11.960;2024-01-07T07:06:46;94034.50;;;3.70;100.00
23363;BME280;11853;48.080;11.960;2024-01-07T07:09:11;94031.88;;;3.70;100.00
23363;BME280;11853;48.080;11.960;2024-01-07T07:11:38;94035.22;;;3.72;100.00
23363;BME280;11853;48.080;11.960;2024-01-07T07:14:04;94035.88;;;3.74;100.00
23363;BME280;11853;48.080;11.960;2024-01-07T07:16:29;94034.94;;;3.75;100.00
23363;BME280;11853;48.080;11.960;2024-01-07T07:18:55;94040.31;;;3.74;100.00
23363;BME280;11853;48.080;11.960;2024-01-07T07:21:20;94037.56;;;3.75;100.00
23363;BME280;11853;48.080;11.960;2024-01-07T07:23:46;94040.03;;;3.77;100.00
23363;BME280;11853;48.080;11.960;2024-01-07T07:26:11;94049.97;;;3.73;100.00
23363;BME280;11853;48.080;11.960;2024-01-07T07:28:37;94046.53;;;3.73;100.00
23363;BME280;11853;48.080;11.960;2024-01-07T07:31:03;94049.16;;;3.73;100.00
23363;BME280;11853;48.080;11.960;2024-01-07T07:33:29;94061.69;;;3.69;100.00
23363;BME280;11853;48.080;11.960;2024-01-07T07:35:54;94058.22;;;3.69;100.00
23363;BME280;11853;48.080;11.960;2024-01-07T07:38:20;94064.06;;;3.72;100.00
23363;BME280;11853;48.080;11.960;2024-01-07T07:40:45;94067.63;;;3.71;100.00
23363;BME280;11853;48.080;11.960;2024-01-07T07:43:20;94069.97;;;3.74;100.00
23363;BME280;11853;48.080;11.960;2024-01-07T07:45:46;94070.13;;;3.73;100.00
23363;BME280;11853;48.080;11.960;2024-01-07T07:48:12;94069.56;;;3.69;100.00
23363;BME280;11853;48.080;11.960;2024-01-07T07:50:38;94070.13;;;3.73;100.00
23363;BME280;11853;48.080;11.960;2024-01-07T07:53:03;94080.75;;;3.71;100.00
23363;BME280;11853;48.080;11.960;2024-01-07T07:55:29;94085.03;;;3.72;100.00
23363;BME280;11853;48.080;11.960;2024-01-07T07:57:55;94089.31;;;3.73;100.00
23363;BME280;11853;48.080;11.960;2024-01-07T08:00:20;94088.59;;;3.71;100.00
23363;BME280;11853;48.080;11.960;2024-01-07T08:02:46;94089.44;;;3.72;100.00
23363;BME280;11853;48.080;11.960;2024-01-07T08:05:12;94088.50;;;3.73;100.00
23363;BME280;11853;48.080;11.960;2024-01-07T08:07:37;94089.31;;;3.73;100.00
23363;BME280;11853;48.080;11.960;2024-01-07T08:10:03;94090.03;;;3.75;100.00
23363;BME280;11853;48.080;11.960;2024-01-07T08:12:29;94094.31;;;3.76;100.00
23363;BME280;11853;48.080;11.960;2024-01-07T08:14:55;94097.56;;;3.69;100.00
23363;BME280;11853;48.080;11.960;2024-01-07T08:17:20;94099.09;;;3.71;100.00
23363;BME280;11853;48.080;11.960;2024-01-07T08:19:46;94111.28;;;3.72;100.00
23363;BME280;11853;48.080;11.960;2024-01-07T08:22:11;94112.09;;;3.73;100.00
23363;BME280;11853;48.080;11.960;2024-01-07T08:24:37;94112.94;;;3.73;100.00
23363;BME280;11853;48.080;11.960;2024-01-07T08:27:04;94114.31;;;3.77;100.00
23363;BME280;11853;48.080;11.960;2024-01-07T08:29:29;94120.25;;;3.79;100.00
23363;BME280;11853;48.080;11.960;2024-01-07T08:31:58;94109.78;;;3.79;100.00
23363;BME280;11853;48.080;11.960;2024-01-07T08:34:24;94119.28;;;3.80;100.00
23363;BME280;11853;48.080;11.960;2024-01-07T08:36:50;94115.84;;;3.80;100.00
23363;BME280;11853;48.080;11.960;2024-01-07T08:39:39;94123.59;;;3.81;100.00
23363;BME280;11853;48.080;11.960;2024-01-07T08:42:05;94114.03;;;3.80;100.00
23363;BME280;11853;48.080;11.960;2024-01-07T08:44:31;94126.50;;;3.78;100.00
23363;BME280;11853;48.080;11.960;2024-01-07T08:47:19;94128.84;;;3.81;100.00
23363;BME280;11853;48.080;11.960;2024-01-07T08:50:03;94133.13;;;3.82;100.00
23363;BME280;11853;48.080;11.960;2024-01-07T08:52:57;94127.88;;;3.82;100.00
23363;BME280;11853;48.080;11.960;2024-01-07T08:55:23;94137.28;;;3.85;100.00
23363;BME280;11853;48.080;11.960;2024-01-07T08:57:54;94135.19;;;3.79;100.00
23363;BME280;11853;48.080;11.960;2024-01-07T09:00:20;94145.28;;;3.83;100.00
23363;BME280;11853;48.080;11.960;2024-01-07T09:02:51;94147.47;;;3.78;100.00
23363;BME280;11853;48.080;11.960;2024-01-07T09:05:17;94152.47;;;3.81;100.00
23363;BME280;11853;48.080;11.960;2024-01-07T09:07:42;94158.25;;;3.85;100.00
23363;BME280;11853;48.080;11.960;2024-01-07T09:10:08;94152.91;;;3.87;100.00
23363;BME280;11853;48.080;11.960;2024-01-07T09:12:36;94156.34;;;3.87;100.00
23363;BME280;11853;48.080;11.960;2024-01-07T09:15:04;94153.31;;;3.92;100.00
23363;BME280;11853;48.080;11.960;2024-01-07T09:17:36;94163.56;;;3.95;100.00
23363;BME280;11853;48.080;11.960;2024-01-07T09:20:07;94160.44;;;4.01;100.00
23363;BME280;11853;48.080;11.960;2024-01-07T09:22:33;94157.56;;;4.04;100.00
23363;BME280;11853;48.080;11.960;2024-01-07T09:25:02;94163.22;;;4.09;100.00
23363;BME280;11853;48.080;11.960;2024-01-07T09:27:28;94164.75;;;4.12;100.00
23363;BME280;11853;48.080;11.960;2024-01-07T09:29:54;94160.50;;;4.20;100.00
23363;BME280;11853;48.080;11.960;2024-01-07T09:32:20;94171.53;;;4.14;100.00
23363;BME280;11853;48.080;11.960;2024-01-07T09:34:45;94171.88;;;4.21;100.00
23363;BME280;11853;48.080;11.960;2024-01-07T09:37:11;94176.69;;;4.25;100.00
23363;BME280;11853;48.080;11.960;2024-01-07T09:39:40;94179.59;;;4.22;100.00
23363;BME280;11853;48.080;11.960;2024-01-07T09:42:16;94180.28;;;4.24;100.00
23363;BME280;11853;48.080;11.960;2024-01-07T09:44:43;94176.84;;;4.24;100.00
23363;BME280;11853;48.080;11.960;2024-01-07T09:47:13;94177.94;;;4.21;100.00
23363;BME280;11853;48.080;11.960;2024-01-07T09:49:40;94172.69;;;4.21;100.00
23363;BME280;11853;48.080;11.960;2024-01-07T09:52:08;94178.19;;;4.18;100.00
23363;BME280;11853;48.080;11.960;2024-01-07T09:54:38;94179.28;;;4.16;100.00
23363;BME280;11853;48.080;11.960;2024-01-07T09:57:08;94186.19;;;4.17;100.00
23363;BME280;11853;48.080;11.960;2024-01-07T09:59:34;94172.50;;;4.13;100.00
23363;BME280;11853;48.080;11.960;2024-01-07T10:02:02;94170.59;;;4.15;100.00
23363;BME280;11853;48.080;11.960;2024-01-07T10:04:28;94173.34;;;4.14;100.00
23363;BME280;11853;48.080;11.960;2024-01-07T10:06:54;94179.41;;;4.14;100.00
23363;BME280;11853;48.080;11.960;2024-01-07T10:09:22;94177.59;;;4.15;100.00
23363;BME280;11853;48.080;11.960;2024-01-07T10:11:49;94180.81;;;4.18;100.00
23363;BME280;11853;48.080;11.960;2024-01-07T10:14:15;94178.06;;;4.20;100.00
23363;BME280;11853;48.080;11.960;2024-01-07T10:16:41;94180.56;;;4.21;100.00
23363;BME280;11853;48.080;11.960;2024-01-07T10:19:07;94190.81;;;4.24;100.00
23363;BME280;11853;48.080;11.960;2024-01-07T10:21:34;94182.91;;;4.24;100.00
23363;BME280;11853;48.080;11.960;2024-01-07T10:24:10;94181.94;;;4.25;100.00
23363;BME280;11853;48.080;11.960;2024-01-07T10:26:40;94191.25;;;4.29;100.00
23363;BME280;11853;48.080;11.960;2024-01-07T10:29:07;94187.75;;;4.29;100.00
23363;BME280;11853;48.080;11.960;2024-01-07T10:31:38;94187.19;;;4.25;100.00
23363;BME280;11853;48.080;11.960;2024-01-07T10:34:07;94179.47;;;4.24;100.00
23363;BME280;11853;48.080;11.960;2024-01-07T10:36:34;94182.91;;;4.24;100.00
23363;BME280;11853;48.080;11.960;2024-01-07T10:39:00;94193.88;;;4.29;100.00
23363;BME280;11853;48.080;11.960;2024-01-07T10:41:26;94183.78;;;4.35;100.00
23363;BME280;11853;48.080;11.960;2024-01-07T10:43:53;94189.03;;;4.35;100.00
23363;BME280;11853;48.080;11.960;2024-01-07T10:46:20;94190.03;;;4.43;100.00
23363;BME280;11853;48.080;11.960;2024-01-07T10:48:58;94192.19;;;5.48;100.00
23363;BME280;11853;48.080;11.960;2024-01-07T10:51:27;94183.03;;;5.72;100.00
23363;BME280;11853;48.080;11.960;2024-01-07T10:53:55;94184.84;;;5.71;100.00
23363;BME280;11853;48.080;11.960;2024-01-07T10:56:29;94191.09;;;5.90;100.00
23363;BME280;11853;48.080;11.960;2024-01-07T10:58:57;94184.97;;;6.08;100.00
23363;BME280;11853;48.080;11.960;2024-01-07T11:01:25;94194.09;;;6.14;100.00
23363;BME280;11853;48.080;11.960;2024-01-07T11:09:23;94192.63;;;5.73;100.00
23363;BME280;11853;48.080;11.960;2024-01-07T11:11:51;94200.25;;;5.47;100.00
23363;BME280;11853;48.080;11.960;2024-01-07T11:14:36;94193.28;;;5.26;100.00
23363;BME280;11853;48.080;11.960;2024-01-07T11:17:03;94186.91;;;5.09;100.00
23363;BME280;11853;48.080;11.960;2024-01-07T11:19:32;94198.50;;;4.97;100.00
23363;BME280;11853;48.080;11.960;2024-01-07T11:22:26;94194.19;;;4.86;100.00
23363;BME280;11853;48.080;11.960;2024-01-07T11:24:58;94192.94;;;4.81;100.00
23363;BME280;11853;48.080;11.960;2024-01-07T11:27:31;94195.16;;;4.76;100.00
23363;BME280;11853;48.080;11.960;2024-01-07T11:30:08;94195.53;;;4.71;100.00
23363;BME280;11853;48.080;11.960;2024-01-07T11:32:44;94197.72;;;4.66;100.00
23363;BME280;11853;48.080;11.960;2024-01-07T11:35:13;94192.63;;;4.64;100.00
23363;BME280;11853;48.080;11.960;2024-01-07T11:37:39;94190.94;;;4.63;100.00
23363;BME280;11853;48.080;11.960;2024-01-07T11:40:06;94191.91;;;4.62;100.00
23363;BME280;11853;48.080;11.960;2024-01-07T11:42:32;94197.06;;;4.64;100.00
23363;BME280;11853;48.080;11.960;2024-01-07T11:44:58;94194.28;;;4.65;100.00
23363;BME280;11853;48.080;11.960;2024-01-07T11:47:24;94193.28;;;4.66;100.00
23363;BME280;11853;48.080;11.960;2024-01-07T11:49:53;94199.53;;;4.65;100.00
23363;BME280;11853;48.080;11.960;2024-01-07T11:52:21;94196.19;;;4.63;100.00
23363;BME280;11853;48.080;11.960;2024-01-07T11:54:47;94198.16;;;4.61;100.00
23363;BME280;11853;48.080;11.960;2024-01-07T11:57:14;94194.53;;;4.62;100.00
23363;BME280;11853;48.080;11.960;2024-01-07T11:59:40;94198.16;;;4.61;100.00
23363;BME280;11853;48.080;11.960;2024-01-07T12:02:06;94204.34;;;4.60;100.00
23363;BME280;11853;48.080;11.960;2024-01-07T12:04:33;94203.25;;;4.63;100.00
23363;BME280;11853;48.080;11.960;2024-01-07T12:06:59;94206.69;;;4.63;100.00
23363;BME280;11853;48.080;11.960;2024-01-07T12:09:26;94201.44;;;4.63;100.00
23363;BME280;11853;48.080;11.960;2024-01-07T12:11:52;94208.13;;;4.67;100.00
23363;BME280;11853;48.080;11.960;2024-01-07T12:14:18;94210.84;;;4.66;100.00
23363;BME280;11853;48.080;11.960;2024-01-07T12:16:45;94210.03;;;4.65;100.00
23363;BME280;11853;48.080;11.960;2024-01-07T12:19:10;94213.75;;;4.63;100.00
23363;BME280;11853;48.080;11.960;2024-01-07T12:21:36;94216.25;;;4.64;100.00
23363;BME280;11853;48.080;11.960;2024-01-07T12:24:03;94214.19;;;4.68;100.00
23363;BME280;11853;48.080;11.960;2024-01-07T12:26:30;94220.28;;;4.68;100.00
23363;BME280;11853;48.080;11.960;2024-01-07T12:28:59;94221.38;;;4.66;100.00
23363;BME280;11853;48.080;11.960;2024-01-07T12:31:34;94221.09;;;4.69;100.00
23363;BME280;11853;48.080;11.960;2024-01-07T12:34:01;94220.00;;;4.71;100.00
23363;BME280;11853;48.080;11.960;2024-01-07T12:36:29;94219.88;;;4.73;100.00
23363;BME280;11853;48.080;11.960;2024-01-07T12:38:56;94214.75;;;4.71;100.00
23363;BME280;11853;48.080;11.960;2024-01-07T12:41:23;94221.81;;;4.71;100.00
23363;BME280;11853;48.080;11.960;2024-01-07T12:43:49;94231.34;;;4.72;100.00
23363;BME280;11853;48.080;11.960;2024-01-07T12:46:16;94240.75;;;4.74;100.00
23363;BME280;11853;48.080;11.960;2024-01-07T12:48:41;94231.59;;;4.69;100.00
23363;BME280;11853;48.080;11.960;2024-01-07T12:51:07;94235.22;;;4.68;100.00
23363;BME280;11853;48.080;11.960;2024-01-07T12:53:33;94228.84;;;4.61;100.00